sensor_id;sensor_type;location;lat;lon;timestamp;P1;durP1;ratioP1;P2;durP2;ratioP2
69991;SDS011;57332;51.320;-0.580;2023-03-02T00:01:41;3.50;;;1.50;;
69991;SDS011;57332;51.320;-0.580;2023-03-02T00:04:11;4.97;;;1.60;;
69991;SDS011;57332;51.320;-0.580;2023-03-02T00:06:38;3.53;;;1.60;;
69991;SDS011;57332;51.320;-0.580;2023-03-02T00:09:05;4.07;;;1.60;;
69991;SDS011;57332;51.320;-0.580;2023-03-02T00:11:32;2.70;;;1.30;;
69991;SDS011;57332;51.320;-0.580;2023-03-02T00:13:59;4.28;;;1.60;;
69991;SDS011;57332;51.320;-0.580;2023-03-02T00:16:27;3.13;;;1.65;;
69991;SDS011;57332;51.320;-0.580;2023-03-02T00:18:54;2.97;;;1.50;;
69991;SDS011;57332;51.320;-0.580;2023-03-02T00:21:20;4.90;;;1.42;;
69991;SDS011;57332;51.320;-0.580;2023-03-02T00:23:50;3.80;;;1.63;;
69991;SDS011;57332;51.320;-0.580;2023-03-02T00:26:18;4.60;;;1.75;;
69991;SDS011;57332;51.320;-0.580;2023-03-02T00:28:45;4.30;;;1.60;;
69991;SDS011;57332;51.320;-0.580;2023-03-02T00:31:11;4.25;;;1.88;;
69991;SDS011;57332;51.320;-0.580;2023-03-02T00:33:38;4.90;;;1.85;;
69991;SDS011;57332;51.320;-0.580;2023-03-02T00:36:05;3.53;;;1.52;;
69991;SDS011;57332;51.320;-0.580;2023-03-02T00:38:39;3.80;;;1.63;;
69991;SDS011;57332;51.320;-0.580;2023-03-02T00:41:06;6.72;;;1.70;;
69991;SDS011;57332;51.320;-0.580;2023-03-02T00:43:33;3.33;;;1.60;;
69991;SDS011;57332;51.320;-0.580;2023-03-02T00:46:06;4.32;;;1.88;;
69991;SDS011;57332;51.320;-0.580;2023-03-02T00:48:33;4.13;;;1.90;;
69991;SDS011;57332;51.320;-0.580;2023-03-02T00:51:00;3.83;;;1.90;;
69991;SDS011;57332;51.320;-0.580;2023-03-02T00:53:27;4.10;;;2.00;;
69991;SDS011;57332;51.320;-0.580;2023-03-02T00:55:54;3.53;;;2.00;;
69991;SDS011;57332;51.320;-0.580;2023-03-02T00:58:21;3.20;;;1.55;;
69991;SDS011;57332;51.320;-0.580;2023-03-02T01:00:48;3.10;;;1.83;;
69991;SDS011;57332;51.320;-0.580;2023-03-02T01:03:15;3.85;;;1.60;;
69991;SDS011;57332;51.320;-0.580;2023-03-02T01:05:42;3.33;;;1.90;;
69991;SDS011;57332;51.320;-0.580;2023-03-02T01:08:09;3.70;;;1.90;;
69991;SDS011;57332;51.320;-0.580;2023-03-02T01:10:37;4.05;;;1.75;;
69991;SDS011;57332;51.320;-0.580;2023-03-02T01:13:04;5.25;;;2.17;;
69991;SDS011;57332;51.320;-0.580;2023-03-02T01:15:32;4.15;;;1.70;;
69991;SDS011;57332;51.320;-0.580;2023-03-02T01:17:59;3.45;;;1.65;;
69991;SDS011;57332;51.320;-0.580;2023-03-02T01:20:26;6.20;;;2.10;;
69991;SDS011;57332;51.320;-0.580;2023-03-02T01:22:53;3.78;;;1.95;;
69991;SDS011;57332;51.320;-0.580;2023-03-02T01:25:20;3.63;;;1.67;;
69991;SDS011;57332;51.320;-0.580;2023-03-02T01:27:47;4.90;;;1.92;;
69991;SDS011;57332;51.320;-0.580;2023-03-02T01:30:14;4.47;;;1.90;;
69991;SDS011;57332;51.320;-0.580;2023-03-02T01:32:41;4.90;;;1.85;;
69991;SDS011;57332;51.320;-0.580;2023-03-02T01:35:08;4.43;;;1.95;;
69991;SDS011;57332;51.320;-0.580;2023-03-02T01:37:35;6.10;;;2.13;;
69991;SDS011;57332;51.320;-0.580;2023-03-02T01:40:02;4.95;;;2.30;;
69991;SDS011;57332;51.320;-0.580;2023-03-02T01:42:33;5.05;;;1.83;;
69991;SDS011;57332;51.320;-0.580;2023-03-02T01:44:59;3.95;;;2.10;;
69991;SDS011;57332;51.320;-0.580;2023-03-02T01:47:29;5.20;;;2.00;;
69991;SDS011;57332;51.320;-0.580;2023-03-02T01:49:59;5.57;;;2.17;;
69991;SDS011;57332;51.320;-0.580;2023-03-02T01:52:26;3.58;;;1.90;;
69991;SDS011;57332;51.320;-0.580;2023-03-02T01:54:55;5.25;;;1.90;;
69991;SDS011;57332;51.320;-0.580;2023-03-02T01:57:27;3.95;;;2.13;;
69991;SDS011;57332;51.320;-0.580;2023-03-02T01:59:56;3.53;;;2.08;;
69991;SDS011;57332;51.320;-0.580;2023-03-02T02:02:25;6.55;;;2.70;;
69991;SDS011;57332;51.320;-0.580;2023-03-02T02:04:52;4.40;;;2.17;;
69991;SDS011;57332;51.320;-0.580;2023-03-02T02:07:20;3.83;;;2.08;;
69991;SDS011;57332;51.320;-0.580;2023-03-02T02:09:48;5.88;;;2.30;;
69991;SDS011;57332;51.320;-0.580;2023-03-02T02:12:16;4.60;;;2.10;;
69991;SDS011;57332;51.320;-0.580;2023-03-02T02:14:43;3.42;;;2.22;;
69991;SDS011;57332;51.320;-0.580;2023-03-02T02:17:11;3.92;;;2.00;;
69991;SDS011;57332;51.320;-0.580;2023-03-02T02:22:08;6.05;;;2.38;;
69991;SDS011;57332;51.320;-0.580;2023-03-02T02:24:40;5.32;;;2.30;;
69991;SDS011;57332;51.320;-0.580;2023-03-02T02:27:10;3.50;;;1.95;;
69991;SDS011;57332;51.320;-0.580;2023-03-02T02:29:38;5.57;;;2.25;;
69991;SDS011;57332;51.320;-0.580;2023-03-02T02:32:12;5.05;;;2.53;;
69991;SDS011;57332;51.320;-0.580;2023-03-02T02:34:41;3.88;;;2.20;;
69991;SDS011;57332;51.320;-0.580;2023-03-02T02:37:14;4.60;;;2.60;;
69991;SDS011;57332;51.320;-0.580;2023-03-02T02:39:45;4.53;;;2.38;;
69991;SDS011;57332;51.320;-0.580;2023-03-02T02:42:20;4.60;;;2.08;;
69991;SDS011;57332;51.320;-0.580;2023-03-02T02:44:49;4.28;;;2.17;;
69991;SDS011;57332;51.320;-0.580;2023-03-02T02:47:17;6.15;;;2.28;;
69991;SDS011;57332;51.320;-0.580;2023-03-02T02:49:45;5.18;;;2.33;;
69991;SDS011;57332;51.320;-0.580;2023-03-02T02:52:14;3.25;;;1.83;;
69991;SDS011;57332;51.320;-0.580;2023-03-02T02:54:43;3.97;;;2.00;;
69991;SDS011;57332;51.320;-0.580;2023-03-02T02:57:10;5.97;;;2.78;;
69991;SDS011;57332;51.320;-0.580;2023-03-02T02:59:40;4.88;;;2.17;;
69991;SDS011;57332;51.320;-0.580;2023-03-02T03:02:19;5.05;;;2.55;;
69991;SDS011;57332;51.320;-0.580;2023-03-02T03:04:46;5.45;;;2.33;;
69991;SDS011;57332;51.320;-0.580;2023-03-02T03:07:31;5.63;;;2.63;;
69991;SDS011;57332;51.320;-0.580;2023-03-02T03:12:44;4.13;;;2.10;;
69991;SDS011;57332;51.320;-0.580;2023-03-02T03:15:11;5.32;;;2.70;;
69991;SDS011;57332;51.320;-0.580;2023-03-02T03:17:39;7.60;;;3.10;;
69991;SDS011;57332;51.320;-0.580;2023-03-02T03:20:06;6.32;;;2.90;;
69991;SDS011;57332;51.320;-0.580;2023-03-02T03:22:37;5.60;;;3.30;;
69991;SDS011;57332;51.320;-0.580;2023-03-02T03:25:04;6.43;;;2.50;;
69991;SDS011;57332;51.320;-0.580;2023-03-02T03:27:31;7.85;;;2.28;;
69991;SDS011;57332;51.320;-0.580;2023-03-02T03:29:58;5.40;;;2.60;;
69991;SDS011;57332;51.320;-0.580;2023-03-02T03:32:27;6.97;;;2.60;;
69991;SDS011;57332;51.320;-0.580;2023-03-02T03:34:54;7.03;;;2.85;;
69991;SDS011;57332;51.320;-0.580;2023-03-02T03:37:21;7.32;;;2.63;;
69991;SDS011;57332;51.320;-0.580;2023-03-02T03:39:48;7.47;;;2.92;;
69991;SDS011;57332;51.320;-0.580;2023-03-02T03:42:15;6.90;;;2.75;;
69991;SDS011;57332;51.320;-0.580;2023-03-02T03:44:42;6.60;;;2.72;;
69991;SDS011;57332;51.320;-0.580;2023-03-02T03:47:08;5.93;;;3.13;;
69991;SDS011;57332;51.320;-0.580;2023-03-02T03:49:35;7.35;;;3.30;;
69991;SDS011;57332;51.320;-0.580;2023-03-02T03:52:02;10.30;;;3.70;;
69991;SDS011;57332;51.320;-0.580;2023-03-02T03:54:29;8.32;;;3.00;;
69991;SDS011;57332;51.320;-0.580;2023-03-02T03:56:56;7.22;;;3.13;;
69991;SDS011;57332;51.320;-0.580;2023-03-02T03:59:23;6.80;;;3.00;;
69991;SDS011;57332;51.320;-0.580;2023-03-02T04:01:52;6.95;;;2.90;;
69991;SDS011;57332;51.320;-0.580;2023-03-02T04:04:24;11.07;;;3.58;;
69991;SDS011;57332;51.320;-0.580;2023-03-02T04:09:18;8.85;;;3.20;;
69991;SDS011;57332;51.320;-0.580;2023-03-02T04:11:46;7.80;;;3.13;;
69991;SDS011;57332;51.320;-0.580;2023-03-02T04:14:14;10.45;;;3.25;;
69991;SDS011;57332;51.320;-0.580;2023-03-02T04:16:41;9.90;;;4.15;;
69991;SDS011;57332;51.320;-0.580;2023-03-02T04:19:09;7.53;;;3.42;;
69991;SDS011;57332;51.320;-0.580;2023-03-02T04:21:40;8.73;;;3.55;;
69991;SDS011;57332;51.320;-0.580;2023-03-02T04:24:07;7.97;;;3.78;;
69991;SDS011;57332;51.320;-0.580;2023-03-02T04:26:35;9.60;;;3.88;;
69991;SDS011;57332;51.320;-0.580;2023-03-02T04:29:02;7.75;;;3.78;;
69991;SDS011;57332;51.320;-0.580;2023-03-02T04:31:29;9.15;;;4.38;;
69991;SDS011;57332;51.320;-0.580;2023-03-02T04:33:57;8.73;;;4.05;;
69991;SDS011;57332;51.320;-0.580;2023-03-02T04:36:25;8.15;;;3.63;;
69991;SDS011;57332;51.320;-0.580;2023-03-02T04:38:52;10.95;;;4.63;;
69991;SDS011;57332;51.320;-0.580;2023-03-02T04:41:19;17.27;;;4.82;;
69991;SDS011;57332;51.320;-0.580;2023-03-02T04:43:45;9.73;;;4.18;;
69991;SDS011;57332;51.320;-0.580;2023-03-02T04:46:17;10.65;;;4.40;;
69991;SDS011;57332;51.320;-0.580;2023-03-02T04:48:45;11.48;;;4.22;;
69991;SDS011;57332;51.320;-0.580;2023-03-02T04:51:16;10.10;;;4.32;;
69991;SDS011;57332;51.320;-0.580;2023-03-02T04:53:44;12.63;;;4.82;;
69991;SDS011;57332;51.320;-0.580;2023-03-02T04:56:10;12.48;;;4.53;;
69991;SDS011;57332;51.320;-0.580;2023-03-02T04:58:37;10.50;;;4.80;;
69991;SDS011;57332;51.320;-0.580;2023-03-02T05:01:04;10.38;;;4.47;;
69991;SDS011;57332;51.320;-0.580;2023-03-02T05:03:32;10.57;;;4.75;;
69991;SDS011;57332;51.320;-0.580;2023-03-02T05:05:59;9.40;;;3.88;;
69991;SDS011;57332;51.320;-0.580;2023-03-02T05:08:28;14.02;;;4.88;;
69991;SDS011;57332;51.320;-0.580;2023-03-02T05:10:55;11.55;;;5.30;;
69991;SDS011;57332;51.320;-0.580;2023-03-02T05:13:21;12.75;;;4.93;;
69991;SDS011;57332;51.320;-0.580;2023-03-02T05:15:48;11.25;;;5.25;;
69991;SDS011;57332;51.320;-0.580;2023-03-02T05:18:17;12.27;;;5.35;;
69991;SDS011;57332;51.320;-0.580;2023-03-02T05:20:44;14.27;;;5.50;;
69991;SDS011;57332;51.320;-0.580;2023-03-02T05:23:13;13.20;;;5.72;;
69991;SDS011;57332;51.320;-0.580;2023-03-02T05:25:51;11.65;;;5.05;;
69991;SDS011;57332;51.320;-0.580;2023-03-02T05:28:19;12.70;;;5.68;;
69991;SDS011;57332;51.320;-0.580;2023-03-02T05:30:46;12.65;;;5.13;;
69991;SDS011;57332;51.320;-0.580;2023-03-02T05:33:14;14.35;;;5.47;;
69991;SDS011;57332;51.320;-0.580;2023-03-02T05:35:41;13.20;;;5.40;;
69991;SDS011;57332;51.320;-0.580;2023-03-02T05:38:08;13.38;;;5.25;;
69991;SDS011;57332;51.320;-0.580;2023-03-02T05:40:35;13.02;;;5.05;;
69991;SDS011;57332;51.320;-0.580;2023-03-02T05:43:02;13.35;;;5.75;;
69991;SDS011;57332;51.320;-0.580;2023-03-02T05:45:31;13.13;;;5.15;;
69991;SDS011;57332;51.320;-0.580;2023-03-02T05:47:58;16.38;;;5.20;;
69991;SDS011;57332;51.320;-0.580;2023-03-02T05:50:25;14.55;;;5.78;;
69991;SDS011;57332;51.320;-0.580;2023-03-02T05:52:52;13.18;;;5.20;;
69991;SDS011;57332;51.320;-0.580;2023-03-02T05:55:19;13.65;;;5.22;;
69991;SDS011;57332;51.320;-0.580;2023-03-02T05:57:46;12.77;;;5.13;;
69991;SDS011;57332;51.320;-0.580;2023-03-02T06:00:15;15.73;;;5.88;;
69991;SDS011;57332;51.320;-0.580;2023-03-02T06:02:42;14.82;;;5.55;;
69991;SDS011;57332;51.320;-0.580;2023-03-02T06:05:11;13.32;;;5.95;;
69991;SDS011;57332;51.320;-0.580;2023-03-02T06:07:39;15.05;;;6.13;;
69991;SDS011;57332;51.320;-0.580;2023-03-02T06:10:06;13.00;;;5.63;;
69991;SDS011;57332;51.320;-0.580;2023-03-02T06:12:34;13.45;;;5.68;;
69991;SDS011;57332;51.320;-0.580;2023-03-02T06:15:02;12.90;;;5.35;;
69991;SDS011;57332;51.320;-0.580;2023-03-02T06:17:29;15.05;;;6.43;;
69991;SDS011;57332;51.320;-0.580;2023-03-02T06:19:56;13.70;;;5.60;;
69991;SDS011;57332;51.320;-0.580;2023-03-02T06:22:22;15.85;;;6.05;;
69991;SDS011;57332;51.320;-0.580;2023-03-02T06:24:49;14.02;;;5.32;;
69991;SDS011;57332;51.320;-0.580;2023-03-02T06:27:16;15.48;;;6.70;;
69991;SDS011;57332;51.320;-0.580;2023-03-02T06:29:43;14.82;;;5.85;;
69991;SDS011;57332;51.320;-0.580;2023-03-02T06:32:10;16.88;;;5.80;;
69991;SDS011;57332;51.320;-0.580;2023-03-02T06:34:37;15.13;;;6.85;;
69991;SDS011;57332;51.320;-0.580;2023-03-02T06:37:04;15.13;;;6.55;;
69991;SDS011;57332;51.320;-0.580;2023-03-02T06:39:31;16.08;;;6.40;;
69991;SDS011;57332;51.320;-0.580;2023-03-02T06:41:59;16.88;;;6.38;;
69991;SDS011;57332;51.320;-0.580;2023-03-02T06:44:26;16.38;;;6.20;;
69991;SDS011;57332;51.320;-0.580;2023-03-02T06:46:53;15.23;;;6.05;;
69991;SDS011;57332;51.320;-0.580;2023-03-02T06:49:20;16.52;;;6.25;;
69991;SDS011;57332;51.320;-0.580;2023-03-02T06:51:46;15.35;;;6.22;;
69991;SDS011;57332;51.320;-0.580;2023-03-02T06:54:13;14.65;;;6.45;;
69991;SDS011;57332;51.320;-0.580;2023-03-02T06:56:40;16.20;;;6.65;;
69991;SDS011;57332;51.320;-0.580;2023-03-02T06:59:07;17.17;;;6.07;;
69991;SDS011;57332;51.320;-0.580;2023-03-02T07:01:34;14.65;;;5.97;;
69991;SDS011;57332;51.320;-0.580;2023-03-02T07:04:02;14.88;;;6.50;;
69991;SDS011;57332;51.320;-0.580;2023-03-02T07:06:29;15.15;;;5.82;;
69991;SDS011;57332;51.320;-0.580;2023-03-02T07:08:56;13.45;;;5.45;;
69991;SDS011;57332;51.320;-0.580;2023-03-02T07:11:22;15.30;;;5.75;;
69991;SDS011;57332;51.320;-0.580;2023-03-02T07:13:49;15.60;;;6.15;;
69991;SDS011;57332;51.320;-0.580;2023-03-02T07:16:16;20.80;;;7.05;;
69991;SDS011;57332;51.320;-0.580;2023-03-02T07:18:43;14.35;;;5.90;;
69991;SDS011;57332;51.320;-0.580;2023-03-02T07:21:10;15.45;;;6.38;;
69991;SDS011;57332;51.320;-0.580;2023-03-02T07:23:37;16.63;;;6.95;;
69991;SDS011;57332;51.320;-0.580;2023-03-02T07:26:04;15.70;;;6.07;;
69991;SDS011;57332;51.320;-0.580;2023-03-02T07:28:37;14.27;;;5.68;;
69991;SDS011;57332;51.320;-0.580;2023-03-02T07:31:09;18.60;;;7.03;;
69991;SDS011;57332;51.320;-0.580;2023-03-02T07:33:37;15.13;;;6.13;;
69991;SDS011;57332;51.320;-0.580;2023-03-02T07:36:05;19.30;;;6.72;;
69991;SDS011;57332;51.320;-0.580;2023-03-02T07:38:32;16.80;;;6.88;;
69991;SDS011;57332;51.320;-0.580;2023-03-02T07:40:59;16.63;;;6.95;;
69991;SDS011;57332;51.320;-0.580;2023-03-02T07:43:26;19.08;;;7.88;;
69991;SDS011;57332;51.320;-0.580;2023-03-02T07:45:54;19.67;;;7.10;;
69991;SDS011;57332;51.320;-0.580;2023-03-02T07:48:22;17.23;;;7.30;;
69991;SDS011;57332;51.320;-0.580;2023-03-02T07:50:49;17.73;;;6.70;;
69991;SDS011;57332;51.320;-0.580;2023-03-02T07:53:15;18.42;;;7.05;;
69991;SDS011;57332;51.320;-0.580;2023-03-02T07:55:42;19.80;;;7.65;;
69991;SDS011;57332;51.320;-0.580;2023-03-02T07:58:09;20.33;;;8.43;;
69991;SDS011;57332;51.320;-0.580;2023-03-02T08:00:36;17.98;;;7.13;;
69991;SDS011;57332;51.320;-0.580;2023-03-02T08:03:07;21.27;;;7.45;;
69991;SDS011;57332;51.320;-0.580;2023-03-02T08:05:34;19.60;;;7.75;;
69991;SDS011;57332;51.320;-0.580;2023-03-02T08:08:00;22.40;;;8.63;;
69991;SDS011;57332;51.320;-0.580;2023-03-02T08:10:27;18.90;;;7.97;;
69991;SDS011;57332;51.320;-0.580;2023-03-02T08:12:54;19.42;;;8.10;;
69991;SDS011;57332;51.320;-0.580;2023-03-02T08:15:21;22.15;;;9.57;;
69991;SDS011;57332;51.320;-0.580;2023-03-02T08:17:48;24.75;;;8.93;;
69991;SDS011;57332;51.320;-0.580;2023-03-02T08:20:15;22.27;;;9.00;;
69991;SDS011;57332;51.320;-0.580;2023-03-02T08:22:42;20.58;;;8.77;;
69991;SDS011;57332;51.320;-0.580;2023-03-02T08:25:09;21.77;;;9.32;;
69991;SDS011;57332;51.320;-0.580;2023-03-02T08:27:36;23.33;;;8.75;;
69991;SDS011;57332;51.320;-0.580;2023-03-02T08:30:06;26.88;;;9.60;;
69991;SDS011;57332;51.320;-0.580;2023-03-02T08:32:33;25.05;;;9.93;;
69991;SDS011;57332;51.320;-0.580;2023-03-02T08:35:00;23.50;;;8.50;;
69991;SDS011;57332;51.320;-0.580;2023-03-02T08:37:27;22.63;;;9.70;;
69991;SDS011;57332;51.320;-0.580;2023-03-02T08:39:54;21.77;;;8.35;;
69991;SDS011;57332;51.320;-0.580;2023-03-02T08:42:23;24.00;;;9.52;;
69991;SDS011;57332;51.320;-0.580;2023-03-02T08:44:50;21.08;;;9.43;;
69991;SDS011;57332;51.320;-0.580;2023-03-02T08:47:17;22.95;;;8.93;;
69991;SDS011;57332;51.320;-0.580;2023-03-02T08:49:44;21.10;;;9.77;;
69991;SDS011;57332;51.320;-0.580;2023-03-02T08:52:13;23.35;;;9.57;;
69991;SDS011;57332;51.320;-0.580;2023-03-02T08:54:41;26.40;;;10.27;;
69991;SDS011;57332;51.320;-0.580;2023-03-02T08:57:09;26.20;;;9.05;;
69991;SDS011;57332;51.320;-0.580;2023-03-02T08:59:36;26.73;;;9.93;;
69991;SDS011;57332;51.320;-0.580;2023-03-02T09:02:03;24.23;;;10.48;;
69991;SDS011;57332;51.320;-0.580;2023-03-02T09:04:30;25.40;;;9.65;;
69991;SDS011;57332;51.320;-0.580;2023-03-02T09:06:56;26.98;;;11.45;;
69991;SDS011;57332;51.320;-0.580;2023-03-02T09:09:23;26.30;;;10.30;;
69991;SDS011;57332;51.320;-0.580;2023-03-02T09:11:50;25.42;;;10.90;;
69991;SDS011;57332;51.320;-0.580;2023-03-02T09:14:17;26.02;;;10.23;;
69991;SDS011;57332;51.320;-0.580;2023-03-02T09:16:44;28.48;;;10.52;;
69991;SDS011;57332;51.320;-0.580;2023-03-02T09:19:12;25.65;;;10.82;;
69991;SDS011;57332;51.320;-0.580;2023-03-02T09:21:39;26.08;;;10.73;;
69991;SDS011;57332;51.320;-0.580;2023-03-02T09:24:06;30.67;;;11.55;;
69991;SDS011;57332;51.320;-0.580;2023-03-02T09:26:33;26.23;;;11.45;;
69991;SDS011;57332;51.320;-0.580;2023-03-02T09:29:00;28.90;;;10.52;;
69991;SDS011;57332;51.320;-0.580;2023-03-02T09:31:27;27.27;;;11.05;;
69991;SDS011;57332;51.320;-0.580;2023-03-02T09:33:56;31.60;;;10.85;;
69991;SDS011;57332;51.320;-0.580;2023-03-02T09:36:23;25.30;;;11.18;;
69991;SDS011;57332;51.320;-0.580;2023-03-02T09:38:51;30.25;;;11.93;;
69991;SDS011;57332;51.320;-0.580;2023-03-02T09:51:31;25.27;;;11.20;;
69991;SDS011;57332;51.320;-0.580;2023-03-02T09:56:27;25.75;;;10.25;;
69991;SDS011;57332;51.320;-0.580;2023-03-02T09:58:57;27.63;;;11.50;;
69991;SDS011;57332;51.320;-0.580;2023-03-02T10:01:28;29.15;;;12.23;;
69991;SDS011;57332;51.320;-0.580;2023-03-02T10:04:02;28.88;;;11.32;;
69991;SDS011;57332;51.320;-0.580;2023-03-02T10:06:32;28.67;;;11.73;;
69991;SDS011;57332;51.320;-0.580;2023-03-02T10:09:00;24.33;;;10.35;;
69991;SDS011;57332;51.320;-0.580;2023-03-02T10:11:35;26.17;;;11.18;;
69991;SDS011;57332;51.320;-0.580;2023-03-02T10:14:17;29.65;;;10.75;;
69991;SDS011;57332;51.320;-0.580;2023-03-02T10:16:47;24.35;;;10.18;;
69991;SDS011;57332;51.320;-0.580;2023-03-02T10:19:36;25.60;;;11.60;;
69991;SDS011;57332;51.320;-0.580;2023-03-02T10:22:18;25.20;;;10.05;;
69991;SDS011;57332;51.320;-0.580;2023-03-02T10:27:35;24.45;;;10.18;;
69991;SDS011;57332;51.320;-0.580;2023-03-02T10:32:52;22.88;;;9.50;;
69991;SDS011;57332;51.320;-0.580;2023-03-02T10:35:24;26.52;;;10.43;;
69991;SDS011;57332;51.320;-0.580;2023-03-02T10:38:11;25.67;;;10.82;;
69991;SDS011;57332;51.320;-0.580;2023-03-02T10:40:48;28.02;;;10.50;;
69991;SDS011;57332;51.320;-0.580;2023-03-02T10:43:16;24.95;;;10.98;;
69991;SDS011;57332;51.320;-0.580;2023-03-02T10:45:45;26.05;;;10.45;;
69991;SDS011;57332;51.320;-0.580;2023-03-02T10:48:12;25.95;;;9.98;;
69991;SDS011;57332;51.320;-0.580;2023-03-02T10:50:40;26.80;;;11.32;;
69991;SDS011;57332;51.320;-0.580;2023-03-02T10:53:16;25.05;;;10.40;;
69991;SDS011;57332;51.320;-0.580;2023-03-02T10:55:47;28.48;;;10.93;;
69991;SDS011;57332;51.320;-0.580;2023-03-02T11:00:55;27.58;;;11.60;;
69991;SDS011;57332;51.320;-0.580;2023-03-02T11:03:22;26.25;;;10.10;;
69991;SDS011;57332;51.320;-0.580;2023-03-02T11:05:49;25.38;;;10.68;;
69991;SDS011;57332;51.320;-0.580;2023-03-02T11:08:17;27.40;;;10.82;;
69991;SDS011;57332;51.320;-0.580;2023-03-02T11:11:03;24.77;;;10.55;;
69991;SDS011;57332;51.320;-0.580;2023-03-02T11:13:34;23.15;;;9.80;;
69991;SDS011;57332;51.320;-0.580;2023-03-02T11:16:02;23.25;;;10.07;;
69991;SDS011;57332;51.320;-0.580;2023-03-02T11:21:02;24.10;;;10.05;;
69991;SDS011;57332;51.320;-0.580;2023-03-02T11:26:13;24.75;;;10.55;;
69991;SDS011;57332;51.320;-0.580;2023-03-02T11:29:27;26.17;;;10.93;;
69991;SDS011;57332;51.320;-0.580;2023-03-02T11:34:07;26.38;;;10.15;;
69991;SDS011;57332;51.320;-0.580;2023-03-02T11:36:47;24.23;;;10.13;;
69991;SDS011;57332;51.320;-0.580;2023-03-02T11:39:17;24.73;;;11.55;;
69991;SDS011;57332;51.320;-0.580;2023-03-02T11:41:46;23.77;;;10.45;;
69991;SDS011;57332;51.320;-0.580;2023-03-02T11:44:14;21.60;;;9.48;;
69991;SDS011;57332;51.320;-0.580;2023-03-02T11:46:43;24.30;;;9.85;;
69991;SDS011;57332;51.320;-0.580;2023-03-02T11:49:16;20.23;;;8.98;;
69991;SDS011;57332;51.320;-0.580;2023-03-02T11:51:48;38.72;;;11.43;;
69991;SDS011;57332;51.320;-0.580;2023-03-02T11:54:28;23.55;;;9.23;;
69991;SDS011;57332;51.320;-0.580;2023-03-02T11:56:56;22.23;;;10.02;;
69991;SDS011;57332;51.320;-0.580;2023-03-02T11:59:24;24.95;;;10.25;;
69991;SDS011;57332;51.320;-0.580;2023-03-02T12:01:54;19.40;;;9.05;;
69991;SDS011;57332;51.320;-0.580;2023-03-02T12:04:27;26.58;;;10.88;;
69991;SDS011;57332;51.320;-0.580;2023-03-02T12:06:54;115.05;;;19.40;;
69991;SDS011;57332;51.320;-0.580;2023-03-02T12:11:59;27.50;;;10.02;;
69991;SDS011;57332;51.320;-0.580;2023-03-02T12:14:28;22.48;;;9.40;;
69991;SDS011;57332;51.320;-0.580;2023-03-02T12:19:38;22.02;;;8.48;;
69991;SDS011;57332;51.320;-0.580;2023-03-02T12:22:06;18.80;;;8.77;;
69991;SDS011;57332;51.320;-0.580;2023-03-02T12:24:36;22.38;;;8.98;;
69991;SDS011;57332;51.320;-0.580;2023-03-02T12:27:21;20.23;;;8.10;;
69991;SDS011;57332;51.320;-0.580;2023-03-02T12:29:55;16.55;;;8.50;;
69991;SDS011;57332;51.320;-0.580;2023-03-02T12:32:33;19.95;;;8.57;;
69991;SDS011;57332;51.320;-0.580;2023-03-02T12:48:02;18.23;;;7.50;;
69991;SDS011;57332;51.320;-0.580;2023-03-02T12:50:32;17.65;;;7.93;;
69991;SDS011;57332;51.320;-0.580;2023-03-02T12:53:04;19.42;;;8.85;;
69991;SDS011;57332;51.320;-0.580;2023-03-02T12:55:31;19.00;;;8.35;;
69991;SDS011;57332;51.320;-0.580;2023-03-02T12:58:00;20.08;;;8.70;;
69991;SDS011;57332;51.320;-0.580;2023-03-02T13:00:29;18.02;;;8.10;;
69991;SDS011;57332;51.320;-0.580;2023-03-02T13:02:56;19.73;;;8.32;;
69991;SDS011;57332;51.320;-0.580;2023-03-02T13:05:25;26.00;;;9.55;;
69991;SDS011;57332;51.320;-0.580;2023-03-02T13:08:02;19.23;;;8.68;;
69991;SDS011;57332;51.320;-0.580;2023-03-02T13:10:33;21.65;;;9.43;;
69991;SDS011;57332;51.320;-0.580;2023-03-02T13:13:12;23.98;;;9.30;;
69991;SDS011;57332;51.320;-0.580;2023-03-02T13:15:47;19.83;;;9.23;;
69991;SDS011;57332;51.320;-0.580;2023-03-02T13:18:14;19.20;;;8.98;;
69991;SDS011;57332;51.320;-0.580;2023-03-02T13:20:41;20.10;;;8.10;;
69991;SDS011;57332;51.320;-0.580;2023-03-02T13:23:10;18.83;;;8.23;;
69991;SDS011;57332;51.320;-0.580;2023-03-02T13:25:38;21.40;;;9.35;;
69991;SDS011;57332;51.320;-0.580;2023-03-02T13:30:57;18.15;;;8.13;;
69991;SDS011;57332;51.320;-0.580;2023-03-02T13:33:25;19.02;;;8.40;;
69991;SDS011;57332;51.320;-0.580;2023-03-02T13:35:52;19.30;;;7.85;;
69991;SDS011;57332;51.320;-0.580;2023-03-02T13:38:20;19.10;;;8.00;;
69991;SDS011;57332;51.320;-0.580;2023-03-02T13:40:48;20.70;;;8.35;;
69991;SDS011;57332;51.320;-0.580;2023-03-02T13:43:29;15.82;;;7.85;;
69991;SDS011;57332;51.320;-0.580;2023-03-02T13:45:58;16.65;;;7.43;;
69991;SDS011;57332;51.320;-0.580;2023-03-02T13:48:26;18.50;;;8.48;;
69991;SDS011;57332;51.320;-0.580;2023-03-02T13:50:55;18.10;;;7.68;;
69991;SDS011;57332;51.320;-0.580;2023-03-02T13:53:23;18.35;;;8.27;;
69991;SDS011;57332;51.320;-0.580;2023-03-02T13:55:51;17.67;;;8.32;;
69991;SDS011;57332;51.320;-0.580;2023-03-02T13:58:20;18.40;;;7.50;;
69991;SDS011;57332;51.320;-0.580;2023-03-02T14:00:48;17.23;;;7.95;;
69991;SDS011;57332;51.320;-0.580;2023-03-02T14:03:25;17.42;;;7.88;;
69991;SDS011;57332;51.320;-0.580;2023-03-02T14:05:53;17.98;;;7.68;;
69991;SDS011;57332;51.320;-0.580;2023-03-02T14:08:20;16.65;;;7.97;;
69991;SDS011;57332;51.320;-0.580;2023-03-02T14:10:47;16.33;;;7.43;;
69991;SDS011;57332;51.320;-0.580;2023-03-02T14:13:25;16.52;;;7.90;;
69991;SDS011;57332;51.320;-0.580;2023-03-02T14:15:56;16.83;;;7.57;;
69991;SDS011;57332;51.320;-0.580;2023-03-02T14:20:49;17.75;;;8.18;;
69991;SDS011;57332;51.320;-0.580;2023-03-02T14:23:16;17.08;;;7.78;;
69991;SDS011;57332;51.320;-0.580;2023-03-02T14:25:43;15.70;;;8.00;;
69991;SDS011;57332;51.320;-0.580;2023-03-02T14:28:11;15.25;;;7.13;;
69991;SDS011;57332;51.320;-0.580;2023-03-02T14:30:39;15.20;;;7.32;;
69991;SDS011;57332;51.320;-0.580;2023-03-02T14:33:09;15.68;;;6.82;;
69991;SDS011;57332;51.320;-0.580;2023-03-02T14:35:41;13.63;;;7.00;;
69991;SDS011;57332;51.320;-0.580;2023-03-02T14:38:08;14.82;;;7.25;;
69991;SDS011;57332;51.320;-0.580;2023-03-02T14:40:35;15.13;;;8.23;;
69991;SDS011;57332;51.320;-0.580;2023-03-02T14:43:02;13.95;;;6.32;;
69991;SDS011;57332;51.320;-0.580;2023-03-02T14:45:29;12.52;;;6.47;;
69991;SDS011;57332;51.320;-0.580;2023-03-02T14:47:56;11.93;;;6.10;;
69991;SDS011;57332;51.320;-0.580;2023-03-02T14:50:23;12.88;;;6.15;;
69991;SDS011;57332;51.320;-0.580;2023-03-02T14:52:50;12.45;;;6.35;;
69991;SDS011;57332;51.320;-0.580;2023-03-02T14:55:29;12.10;;;6.53;;
69991;SDS011;57332;51.320;-0.580;2023-03-02T14:58:01;11.27;;;6.18;;
69991;SDS011;57332;51.320;-0.580;2023-03-02T15:00:29;11.05;;;6.63;;
69991;SDS011;57332;51.320;-0.580;2023-03-02T15:02:56;9.73;;;6.18;;
69991;SDS011;57332;51.320;-0.580;2023-03-02T15:05:23;9.73;;;5.35;;
69991;SDS011;57332;51.320;-0.580;2023-03-02T15:07:50;9.70;;;5.68;;
69991;SDS011;57332;51.320;-0.580;2023-03-02T15:10:20;9.50;;;6.18;;
69991;SDS011;57332;51.320;-0.580;2023-03-02T15:12:47;10.75;;;6.15;;
69991;SDS011;57332;51.320;-0.580;2023-03-02T15:15:14;14.90;;;6.53;;
69991;SDS011;57332;51.320;-0.580;2023-03-02T15:17:41;9.82;;;5.80;;
69991;SDS011;57332;51.320;-0.580;2023-03-02T15:20:11;10.43;;;6.30;;
69991;SDS011;57332;51.320;-0.580;2023-03-02T15:22:39;10.75;;;5.90;;
69991;SDS011;57332;51.320;-0.580;2023-03-02T15:25:06;9.15;;;5.30;;
69991;SDS011;57332;51.320;-0.580;2023-03-02T15:27:32;10.15;;;5.78;;
69991;SDS011;57332;51.320;-0.580;2023-03-02T15:29:59;9.73;;;5.78;;
69991;SDS011;57332;51.320;-0.580;2023-03-02T15:32:26;9.68;;;5.57;;